Time,TemperatureF,DewpointF,PressureIn,WindDirection,WindDirectionDegrees,WindSpeedMPH,WindSpeedGustMPH,Humidity,HourlyPrecipIn,Conditions,Clouds,dailyrainin,SoftwareType,DateUTC
2013-03-15 00:07:00,6.4,-13.0,30.23,North,3,0.0,4.0,41,0.00,,,0.00,weatherlink.com 1.10,2013-03-15 08:07:00,
2013-03-15 00:22:00,5.9,-12.0,30.23,ENE,59,0.0,4.0,43,0.00,,,0.00,weatherlink.com 1.10,2013-03-15 08:22:00,
2013-03-15 00:37:00,6.2,-12.0,30.23,ENE,77,0.0,4.0,42,0.00,,,0.00,weatherlink.com 1.10,2013-03-15 08:37:00,
2013-03-15 00:52:00,6.5,-13.0,30.22,ESE,107,0.0,5.0,41,0.00,,,0.00,weatherlink.com 1.10,2013-03-15 08:52:00,
2013-03-15 01:07:00,6.6,-12.0,30.21,West,278,0.0,6.0,42,0.00,,,0.00,weatherlink.com 1.10,2013-03-15 09:07:00,
2013-03-15 01:22:00,6.7,-13.0,30.21,WNW,288,0.0,3.0,40,0.00,,,0.00,weatherlink.com 1.10,2013-03-15 09:22:00,
2013-03-15 01:37:00,6.7,-13.0,30.21,ENE,58,0.0,5.0,40,0.00,,,0.00,weatherlink.com 1.10,2013-03-15 09:37:00,
2013-03-15 01:52:00,6.4,-13.0,30.20,WNW,291,0.0,5.0,40,0.00,,,0.00,weatherlink.com 1.10,2013-03-15 09:52:00,
2013-03-15 02:07:00,6.5,-13.0,30.20,NNE,27,0.0,4.0,40,0.00,,,0.00,weatherlink.com 1.10,2013-03-15 10:07:00,
2013-03-15 02:22:00,6.3,-13.0,30.20,ESE,113,0.0,4.0,40,0.00,,,0.00,weatherlink.com 1.10,2013-03-15 10:22:00,
2013-03-15 02:37:00,6.3,-13.0,30.19,ENE,65,0.0,4.0,40,0.00,,,0.00,weatherlink.com 1.10,2013-03-15 10:37:00,
2013-03-15 02:52:00,6.2,-13.0,30.19,ENE,63,0.0,3.0,41,0.00,,,0.00,weatherlink.com 1.10,2013-03-15 10:52:00,
2013-03-15 03:08:00,6.2,-13.0,30.19,ENE,76,1.0,3.0,40,0.00,,,0.00,weatherlink.com 1.10,2013-03-15 11:08:00,
2013-03-15 03:23:00,6.1,-14.0,30.18,ENE,68,0.0,3.0,39,0.00,,,0.00,weatherlink.com 1.10,2013-03-15 11:23:00,
2013-03-15 03:38:00,5.7,-14.0,30.18,NNW,340,0.0,3.0,39,0.00,,,0.00,weatherlink.com 1.10,2013-03-15 11:38:00,
2013-03-15 03:53:00,5.8,-14.0,30.18,NW,322,0.0,2.0,39,0.00,,,0.00,weatherlink.com 1.10,2013-03-15 11:53:00,
2013-03-15 04:08:00,5.9,-14.0,30.17,SW,226,0.0,3.0,39,0.00,,,0.00,weatherlink.com 1.10,2013-03-15 12:08:00,
2013-03-15 04:23:00,5.9,-14.0,30.17,NW,321,0.0,3.0,39,0.00,,,0.00,weatherlink.com 1.10,2013-03-15 12:23:00,
2013-03-15 04:38:00,6.1,-15.0,30.16,ENE,72,0.0,3.0,38,0.00,,,0.00,weatherlink.com 1.10,2013-03-15 12:38:00,
2013-03-15 04:53:00,6.3,-14.0,30.16,East,83,0.0,5.0,38,0.00,,,0.00,weatherlink.com 1.10,2013-03-15 12:53:00,
2013-03-15 05:08:00,6.0,-14.0,30.15,East,88,0.0,1.0,39,0.00,,,0.00,weatherlink.com 1.10,2013-03-15 13:08:00,
2013-03-15 05:23:00,6.1,-15.0,30.15,East,79,0.0,6.0,38,0.00,,,0.00,weatherlink.com 1.10,2013-03-15 13:23:00,
2013-03-15 05:38:00,6.1,-15.0,30.15,East,89,0.0,4.0,38,0.00,,,0.00,weatherlink.com 1.10,2013-03-15 13:38:00,
2013-03-15 05:53:00,6.4,-14.0,30.15,East,82,0.0,4.0,38,0.00,,,0.00,weatherlink.com 1.10,2013-03-15 13:53:00,
2013-03-15 06:08:00,6.5,-15.0,30.15,ENE,69,0.0,5.0,37,0.00,,,0.00,weatherlink.com 1.10,2013-03-15 14:08:00,
2013-03-15 06:24:00,6.6,-14.0,30.14,NE,46,0.0,3.0,38,0.00,,,0.00,weatherlink.com 1.10,2013-03-15 14:24:00,
2013-03-15 06:39:00,6.3,-15.0,30.14,ENE,58,0.0,3.0,37,0.00,,,0.00,weatherlink.com 1.10,2013-03-15 14:39:00,
2013-03-15 06:54:00,6.6,-15.0,30.14,ENE,65,0.0,5.0,37,0.00,,,0.00,weatherlink.com 1.10,2013-03-15 14:54:00,
2013-03-15 07:09:00,6.2,-14.0,30.13,East,83,0.0,4.0,38,0.00,,,0.00,weatherlink.com 1.10,2013-03-15 15:09:00,
2013-03-15 07:24:00,5.8,-15.0,30.12,East,88,0.0,2.0,38,0.00,,,0.00,weatherlink.com 1.10,2013-03-15 15:24:00,
2013-03-15 07:39:00,5.8,-15.0,30.12,East,84,0.0,3.0,38,0.00,,,0.00,weatherlink.com 1.10,2013-03-15 15:39:00,
2013-03-15 07:54:00,5.5,-15.0,30.12,East,84,0.0,3.0,39,0.00,,,0.00,weatherlink.com 1.10,2013-03-15 15:54:00,
2013-03-15 08:09:00,5.5,-15.0,30.12,East,90,0.0,4.0,39,0.00,,,0.00,weatherlink.com 1.10,2013-03-15 16:09:00,
2013-03-15 08:24:00,5.7,-14.0,30.11,NW,304,0.0,1.0,39,0.00,,,0.00,weatherlink.com 1.10,2013-03-15 16:24:00,
2013-03-15 08:39:00,5.7,-15.0,30.11,NE,35,0.0,2.0,38,0.00,,,0.00,weatherlink.com 1.10,2013-03-15 16:39:00,
2013-03-15 08:54:00,5.8,-14.0,30.11,SE,135,0.0,3.0,39,0.00,,,0.00,weatherlink.com 1.10,2013-03-15 16:54:00,
2013-03-15 09:09:00,5.8,-14.0,30.11,ESE,112,0.0,1.0,39,0.00,,,0.00,weatherlink.com 1.10,2013-03-15 17:09:00,
2013-03-15 09:24:00,5.5,-15.0,30.11,NW,321,0.0,2.0,39,0.00,,,0.00,weatherlink.com 1.10,2013-03-15 17:24:00,
2013-03-15 09:39:00,6.6,-15.0,30.10,East,82,2.0,4.0,36,0.00,,,0.00,weatherlink.com 1.10,2013-03-15 17:39:00,
2013-03-15 09:54:00,5.2,-14.0,30.10,WNW,293,0.0,1.0,41,0.00,,,0.00,weatherlink.com 1.10,2013-03-15 17:54:00,
2013-03-15 10:10:00,7.2,-14.0,30.10,SE,146,0.0,1.0,38,0.00,,,0.00,weatherlink.com 1.10,2013-03-15 18:10:00,
2013-03-15 10:25:00,7.8,-14.0,30.09,East,94,0.0,2.0,36,0.00,,,0.00,weatherlink.com 1.10,2013-03-15 18:25:00,
2013-03-15 10:40:00,9.4,-13.0,30.09,NW,317,0.0,2.0,36,0.00,,,0.00,weatherlink.com 1.10,2013-03-15 18:40:00,
2013-03-15 10:55:00,11.5,-13.0,30.08,NW,312,1.0,7.0,32,0.00,,,0.00,weatherlink.com 1.10,2013-03-15 18:55:00,
2013-03-15 11:10:00,12.5,-12.0,30.08,SE,130,2.0,5.0,32,0.00,,,0.00,weatherlink.com 1.10,2013-03-15 19:10:00,
2013-03-15 11:25:00,13.5,-13.0,30.07,ENE,73,0.0,8.0,30,0.00,,,0.00,weatherlink.com 1.10,2013-03-15 19:25:00,
2013-03-15 11:40:00,14.4,-13.0,30.07,East,85,2.0,5.0,29,0.00,,,0.00,weatherlink.com 1.10,2013-03-15 19:40:00,
2013-03-15 11:55:00,15.7,-13.0,30.06,South,172,2.0,7.0,27,0.00,,,0.00,weatherlink.com 1.10,2013-03-15 19:55:00,
2013-03-15 12:10:00,16.4,-11.0,30.06,West,272,1.0,5.0,29,0.00,,,0.00,weatherlink.com 1.10,2013-03-15 20:10:00,
2013-03-15 12:25:00,17.0,-10.0,30.05,East,84,0.0,4.0,29,0.00,,,0.00,weatherlink.com 1.10,2013-03-15 20:25:00,
2013-03-15 12:40:00,18.0,-11.0,30.05,NNW,334,0.0,7.0,27,0.00,,,0.00,weatherlink.com 1.10,2013-03-15 20:40:00,
2013-03-15 12:55:00,18.5,-12.0,30.05,ENE,70,0.0,5.0,25,0.00,,,0.00,weatherlink.com 1.10,2013-03-15 20:55:00,
2013-03-15 13:10:00,18.9,-10.0,30.04,East,90,0.0,3.0,27,0.00,,,0.00,weatherlink.com 1.10,2013-03-15 21:10:00,
2013-03-15 13:26:00,19.8,-9.0,30.03,WNW,294,0.0,4.0,27,0.00,,,0.00,weatherlink.com 1.10,2013-03-15 21:26:00,
2013-03-15 13:41:00,20.1,-11.0,30.03,WNW,299,3.0,5.0,24,0.00,,,0.00,weatherlink.com 1.10,2013-03-15 21:41:00,
2013-03-15 14:11:00,21.5,-9.0,30.02,East,84,0.0,8.0,26,0.00,,,0.00,weatherlink.com 1.10,2013-03-15 22:11:00,
2013-03-15 14:26:00,22.1,-11.0,30.02,East,94,9.0,9.0,23,0.00,,,0.00,weatherlink.com 1.10,2013-03-15 22:26:00,
2013-03-15 14:41:00,22.3,-8.0,30.01,SSW,207,0.0,4.0,26,0.00,,,0.00,weatherlink.com 1.10,2013-03-15 22:41:00,
2013-03-15 14:56:00,23.3,-7.0,30.01,ENE,63,0.0,2.0,26,0.00,,,0.00,weatherlink.com 1.10,2013-03-15 22:56:00,
2013-03-15 15:11:00,23.5,-8.0,30.00,SE,138,0.0,7.0,25,0.00,,,0.00,weatherlink.com 1.10,2013-03-15 23:11:00,
2013-03-15 15:41:00,22.6,-8.0,30.00,WSW,247,1.0,4.0,26,0.00,,,0.00,weatherlink.com 1.10,2013-03-15 23:41:00,
2013-03-15 15:56:00,22.1,-8.0,30.00,NNE,26,0.0,4.0,26,0.00,,,0.00,weatherlink.com 1.10,2013-03-15 23:56:00,
2013-03-15 16:11:00,21.6,-8.0,30.00,NE,49,0.0,6.0,27,0.00,,,0.00,weatherlink.com 1.10,2013-03-16 00:11:00,
2013-03-15 16:26:00,21.5,-9.0,29.99,NW,312,2.0,6.0,26,0.00,,,0.00,weatherlink.com 1.10,2013-03-16 00:26:00,
2013-03-15 16:42:00,21.3,-8.0,29.99,NE,56,0.0,6.0,27,0.00,,,0.00,weatherlink.com 1.10,2013-03-16 00:42:00,
2013-03-15 16:57:00,21.1,-8.0,29.99,ENE,65,3.0,5.0,27,0.00,,,0.00,weatherlink.com 1.10,2013-03-16 00:57:00,
2013-03-15 17:12:00,20.6,-8.0,29.99,NE,44,0.0,4.0,28,0.00,,,0.00,weatherlink.com 1.10,2013-03-16 01:12:00,
2013-03-15 17:27:00,20.0,-9.0,29.99,ENE,67,0.0,8.0,27,0.00,,,0.00,weatherlink.com 1.10,2013-03-16 01:27:00,
2013-03-15 17:42:00,19.6,-7.0,29.99,ENE,57,0.0,4.0,30,0.00,,,0.00,weatherlink.com 1.10,2013-03-16 01:42:00,
2013-03-15 17:57:00,19.0,-9.0,29.98,East,94,0.0,5.0,29,0.00,,,0.00,weatherlink.com 1.10,2013-03-16 01:57:00,
2013-03-15 18:12:00,18.1,-9.0,29.98,ENE,65,1.0,3.0,30,0.00,,,0.00,weatherlink.com 1.10,2013-03-16 02:12:00,
2013-03-15 18:27:00,17.1,-8.0,29.99,ESE,113,0.0,4.0,32,0.00,,,0.00,weatherlink.com 1.10,2013-03-16 02:27:00,
2013-03-15 18:42:00,17.2,-8.0,29.99,North,3,0.0,4.0,32,0.00,,,0.00,weatherlink.com 1.10,2013-03-16 02:42:00,
2013-03-15 18:57:00,16.4,-9.0,29.99,ENE,69,0.0,3.0,32,0.00,,,0.00,weatherlink.com 1.10,2013-03-16 02:57:00,
2013-03-15 19:12:00,14.8,-9.0,30.00,East,79,0.0,3.0,34,0.00,,,0.00,weatherlink.com 1.10,2013-03-16 03:12:00,
2013-03-15 19:27:00,13.9,-9.0,29.99,East,83,0.0,3.0,35,0.00,,,0.00,weatherlink.com 1.10,2013-03-16 03:27:00,
2013-03-15 19:42:00,13.4,-9.0,30.00,ESE,119,1.0,5.0,36,0.00,,,0.00,weatherlink.com 1.10,2013-03-16 03:42:00,
2013-03-15 19:57:00,12.8,-10.0,30.00,ENE,65,0.0,3.0,36,0.00,,,0.00,weatherlink.com 1.10,2013-03-16 03:57:00,
2013-03-15 20:13:00,12.3,-10.0,30.00,East,98,3.0,4.0,37,0.00,,,0.00,weatherlink.com 1.10,2013-03-16 04:13:00,
2013-03-15 20:28:00,11.8,-10.0,30.00,East,96,1.0,2.0,36,0.00,,,0.00,weatherlink.com 1.10,2013-03-16 04:28:00,
2013-03-15 20:43:00,11.3,-10.0,30.01,East,92,1.0,2.0,38,0.00,,,0.00,weatherlink.com 1.10,2013-03-16 04:43:00,
2013-03-15 20:58:00,10.8,-10.0,30.01,WNW,295,0.0,2.0,38,0.00,,,0.00,weatherlink.com 1.10,2013-03-16 04:58:00,
2013-03-15 21:13:00,10.4,-11.0,30.01,ENE,75,3.0,3.0,38,0.00,,,0.00,weatherlink.com 1.10,2013-03-16 05:13:00,
2013-03-15 21:28:00,10.1,-10.0,30.01,ENE,74,0.0,1.0,39,0.00,,,0.00,weatherlink.com 1.10,2013-03-16 05:28:00,
2013-03-15 21:43:00,9.6,-10.0,30.01,NE,50,0.0,2.0,40,0.00,,,0.00,weatherlink.com 1.10,2013-03-16 05:43:00,
2013-03-15 21:58:00,9.4,-11.0,30.02,NE,49,0.0,2.0,39,0.00,,,0.00,weatherlink.com 1.10,2013-03-16 05:58:00,
2013-03-15 22:13:00,8.8,-11.0,30.02,ENE,75,0.0,1.0,41,0.00,,,0.00,weatherlink.com 1.10,2013-03-16 06:13:00,
2013-03-15 22:28:00,7.3,-10.0,30.02,East,89,0.0,1.0,44,0.00,,,0.00,weatherlink.com 1.10,2013-03-16 06:28:00,
2013-03-15 22:44:00,7.3,-10.0,30.02,ENE,75,0.0,1.0,45,0.00,,,0.00,weatherlink.com 1.10,2013-03-16 06:44:00,
2013-03-15 22:58:00,6.7,-10.0,30.02,NE,49,0.0,1.0,46,0.00,,,0.00,weatherlink.com 1.10,2013-03-16 06:58:00,
2013-03-15 23:13:00,6.7,-11.0,30.03,ENE,60,0.0,2.0,45,0.00,,,0.00,weatherlink.com 1.10,2013-03-16 07:13:00,
2013-03-15 23:28:00,6.7,-11.0,30.03,East,96,0.0,1.0,45,0.00,,,0.00,weatherlink.com 1.10,2013-03-16 07:28:00,
2013-03-15 23:43:00,5.5,-10.0,30.04,NE,47,0.0,0.0,48,0.00,,,0.00,weatherlink.com 1.10,2013-03-16 07:43:00,
2013-03-15 23:59:00,5.5,-10.0,30.04,ENE,62,0.0,0.0,49,0.00,,,0.00,weatherlink.com 1.10,2013-03-16 07:59:00,